sensor_id;sensor_type;location;lat;lon;timestamp;P1;durP1;ratioP1;P2;durP2;ratioP2
15996;SDS011;8103;51.340;12.326;2024-01-07T00:02:05;26.50;;;15.90;;
15996;SDS011;8103;51.340;12.326;2024-01-07T00:04:32;25.58;;;15.32;;
15996;SDS011;8103;51.340;12.326;2024-01-07T00:07:00;25.15;;;14.40;;
15996;SDS011;8103;51.340;12.326;2024-01-07T00:09:27;22.50;;;14.38;;
15996;SDS011;8103;51.340;12.326;2024-01-07T00:11:53;20.25;;;14.13;;
15996;SDS011;8103;51.340;12.326;2024-01-07T00:14:20;21.15;;;14.38;;
15996;SDS011;8103;51.340;12.326;2024-01-07T00:16:47;20.02;;;13.10;;
15996;SDS011;8103;51.340;12.326;2024-01-07T00:19:13;21.40;;;14.02;;
15996;SDS011;8103;51.340;12.326;2024-01-07T00:21:40;23.98;;;15.95;;
15996;SDS011;8103;51.340;12.326;2024-01-07T00:24:07;22.25;;;14.88;;
15996;SDS011;8103;51.340;12.326;2024-01-07T00:26:34;22.10;;;14.50;;
15996;SDS011;8103;51.340;12.326;2024-01-07T00:29:00;32.08;;;14.70;;
15996;SDS011;8103;51.340;12.326;2024-01-07T00:31:27;20.42;;;14.30;;
15996;SDS011;8103;51.340;12.326;2024-01-07T00:33:54;21.02;;;14.38;;
15996;SDS011;8103;51.340;12.326;2024-01-07T00:36:20;21.58;;;14.82;;
15996;SDS011;8103;51.340;12.326;2024-01-07T00:38:47;20.48;;;13.52;;
15996;SDS011;8103;51.340;12.326;2024-01-07T00:41:14;21.30;;;13.43;;
15996;SDS011;8103;51.340;12.326;2024-01-07T00:43:40;25.85;;;15.63;;
15996;SDS011;8103;51.340;12.326;2024-01-07T00:46:07;18.60;;;12.65;;
15996;SDS011;8103;51.340;12.326;2024-01-07T00:48:34;21.75;;;13.73;;
15996;SDS011;8103;51.340;12.326;2024-01-07T00:51:01;22.30;;;13.60;;
15996;SDS011;8103;51.340;12.326;2024-01-07T00:53:27;21.92;;;12.80;;
15996;SDS011;8103;51.340;12.326;2024-01-07T00:55:54;20.65;;;13.68;;
15996;SDS011;8103;51.340;12.326;2024-01-07T00:58:21;17.52;;;11.38;;
15996;SDS011;8103;51.340;12.326;2024-01-07T01:00:48;20.08;;;12.75;;
15996;SDS011;8103;51.340;12.326;2024-01-07T01:03:14;19.15;;;12.70;;
15996;SDS011;8103;51.340;12.326;2024-01-07T01:05:41;15.55;;;10.80;;
15996;SDS011;8103;51.340;12.326;2024-01-07T01:08:08;20.30;;;11.43;;
15996;SDS011;8103;51.340;12.326;2024-01-07T01:10:34;17.85;;;10.85;;
15996;SDS011;8103;51.340;12.326;2024-01-07T01:13:01;19.70;;;10.00;;
15996;SDS011;8103;51.340;12.326;2024-01-07T01:15:28;17.25;;;11.38;;
15996;SDS011;8103;51.340;12.326;2024-01-07T01:17:54;16.42;;;11.02;;
15996;SDS011;8103;51.340;12.326;2024-01-07T01:20:21;16.85;;;10.90;;
15996;SDS011;8103;51.340;12.326;2024-01-07T01:22:48;18.17;;;11.20;;
15996;SDS011;8103;51.340;12.326;2024-01-07T01:25:15;21.08;;;11.75;;
15996;SDS011;8103;51.340;12.326;2024-01-07T01:27:41;18.52;;;10.50;;
15996;SDS011;8103;51.340;12.326;2024-01-07T01:30:08;18.75;;;10.77;;
15996;SDS011;8103;51.340;12.326;2024-01-07T01:32:35;15.05;;;9.38;;
15996;SDS011;8103;51.340;12.326;2024-01-07T01:35:02;21.17;;;11.43;;
15996;SDS011;8103;51.340;12.326;2024-01-07T01:37:29;19.20;;;10.98;;
15996;SDS011;8103;51.340;12.326;2024-01-07T01:39:58;18.25;;;12.10;;
15996;SDS011;8103;51.340;12.326;2024-01-07T01:42:25;18.73;;;11.63;;
15996;SDS011;8103;51.340;12.326;2024-01-07T01:44:52;19.02;;;9.88;;
15996;SDS011;8103;51.340;12.326;2024-01-07T01:47:23;19.27;;;11.32;;
15996;SDS011;8103;51.340;12.326;2024-01-07T01:49:50;17.10;;;10.57;;
15996;SDS011;8103;51.340;12.326;2024-01-07T01:52:17;16.75;;;10.57;;
15996;SDS011;8103;51.340;12.326;2024-01-07T01:54:44;14.02;;;9.02;;
15996;SDS011;8103;51.340;12.326;2024-01-07T01:57:13;18.85;;;11.07;;
15996;SDS011;8103;51.340;12.326;2024-01-07T01:59:44;16.88;;;10.93;;
15996;SDS011;8103;51.340;12.326;2024-01-07T02:02:11;17.48;;;10.43;;
15996;SDS011;8103;51.340;12.326;2024-01-07T02:04:37;18.83;;;11.48;;
15996;SDS011;8103;51.340;12.326;2024-01-07T02:07:04;22.17;;;11.13;;
15996;SDS011;8103;51.340;12.326;2024-01-07T02:09:31;14.43;;;10.40;;
15996;SDS011;8103;51.340;12.326;2024-01-07T02:12:01;14.57;;;10.80;;
15996;SDS011;8103;51.340;12.326;2024-01-07T02:14:29;18.58;;;10.43;;
15996;SDS011;8103;51.340;12.326;2024-01-07T02:16:55;17.77;;;10.50;;
15996;SDS011;8103;51.340;12.326;2024-01-07T02:19:22;15.10;;;9.23;;
15996;SDS011;8103;51.340;12.326;2024-01-07T02:21:50;17.73;;;9.80;;
15996;SDS011;8103;51.340;12.326;2024-01-07T02:24:17;15.35;;;9.52;;
15996;SDS011;8103;51.340;12.326;2024-01-07T02:26:44;12.13;;;8.73;;
15996;SDS011;8103;51.340;12.326;2024-01-07T02:29:11;14.93;;;9.50;;
15996;SDS011;8103;51.340;12.326;2024-01-07T02:31:38;12.27;;;8.52;;
15996;SDS011;8103;51.340;12.326;2024-01-07T02:34:04;14.50;;;8.77;;
15996;SDS011;8103;51.340;12.326;2024-01-07T02:36:31;12.40;;;8.30;;
15996;SDS011;8103;51.340;12.326;2024-01-07T02:38:58;14.48;;;9.35;;
15996;SDS011;8103;51.340;12.326;2024-01-07T02:41:25;13.50;;;9.52;;
15996;SDS011;8103;51.340;12.326;2024-01-07T02:43:52;14.73;;;10.07;;
15996;SDS011;8103;51.340;12.326;2024-01-07T02:46:20;13.07;;;9.55;;
15996;SDS011;8103;51.340;12.326;2024-01-07T02:48:47;14.32;;;9.50;;
15996;SDS011;8103;51.340;12.326;2024-01-07T02:51:13;14.40;;;9.68;;
15996;SDS011;8103;51.340;12.326;2024-01-07T02:53:40;16.98;;;10.30;;
15996;SDS011;8103;51.340;12.326;2024-01-07T02:56:07;13.40;;;10.18;;
15996;SDS011;8103;51.340;12.326;2024-01-07T02:58:35;12.30;;;9.38;;
15996;SDS011;8103;51.340;12.326;2024-01-07T03:01:01;13.85;;;8.38;;
15996;SDS011;8103;51.340;12.326;2024-01-07T03:03:30;14.88;;;9.52;;
15996;SDS011;8103;51.340;12.326;2024-01-07T03:05:56;13.13;;;9.52;;
15996;SDS011;8103;51.340;12.326;2024-01-07T03:08:23;13.27;;;9.15;;
15996;SDS011;8103;51.340;12.326;2024-01-07T03:10:50;14.70;;;8.98;;
15996;SDS011;8103;51.340;12.326;2024-01-07T03:13:17;16.50;;;8.55;;
15996;SDS011;8103;51.340;12.326;2024-01-07T03:15:43;14.32;;;8.73;;
15996;SDS011;8103;51.340;12.326;2024-01-07T03:18:10;16.70;;;8.55;;
15996;SDS011;8103;51.340;12.326;2024-01-07T03:20:37;11.82;;;7.65;;
15996;SDS011;8103;51.340;12.326;2024-01-07T03:23:03;9.93;;;7.63;;
15996;SDS011;8103;51.340;12.326;2024-01-07T03:25:30;10.05;;;7.25;;
15996;SDS011;8103;51.340;12.326;2024-01-07T03:27:57;10.40;;;7.18;;
15996;SDS011;8103;51.340;12.326;2024-01-07T03:30:23;13.38;;;7.05;;
15996;SDS011;8103;51.340;12.326;2024-01-07T03:32:50;8.98;;;6.50;;
15996;SDS011;8103;51.340;12.326;2024-01-07T03:35:17;10.55;;;6.35;;
15996;SDS011;8103;51.340;12.326;2024-01-07T03:37:43;12.52;;;7.70;;
15996;SDS011;8103;51.340;12.326;2024-01-07T03:40:10;12.77;;;7.13;;
15996;SDS011;8103;51.340;12.326;2024-01-07T03:42:40;11.98;;;6.82;;
15996;SDS011;8103;51.340;12.326;2024-01-07T03:45:07;13.18;;;7.43;;
15996;SDS011;8103;51.340;12.326;2024-01-07T03:47:34;10.85;;;6.40;;
15996;SDS011;8103;51.340;12.326;2024-01-07T03:50:00;8.50;;;5.85;;
15996;SDS011;8103;51.340;12.326;2024-01-07T03:52:27;12.65;;;7.80;;
15996;SDS011;8103;51.340;12.326;2024-01-07T03:54:54;10.13;;;6.10;;
15996;SDS011;8103;51.340;12.326;2024-01-07T03:57:21;10.10;;;5.75;;
15996;SDS011;8103;51.340;12.326;2024-01-07T03:59:48;10.77;;;5.65;;
15996;SDS011;8103;51.340;12.326;2024-01-07T04:02:14;12.82;;;6.70;;
15996;SDS011;8103;51.340;12.326;2024-01-07T04:04:42;15.55;;;8.23;;
15996;SDS011;8103;51.340;12.326;2024-01-07T04:07:09;18.00;;;9.18;;
15996;SDS011;8103;51.340;12.326;2024-01-07T04:09:36;15.27;;;7.35;;
15996;SDS011;8103;51.340;12.326;2024-01-07T04:12:03;15.25;;;7.40;;
15996;SDS011;8103;51.340;12.326;2024-01-07T04:14:30;12.82;;;6.97;;
15996;SDS011;8103;51.340;12.326;2024-01-07T04:16:59;9.95;;;5.95;;
15996;SDS011;8103;51.340;12.326;2024-01-07T04:19:26;11.40;;;6.78;;
15996;SDS011;8103;51.340;12.326;2024-01-07T04:21:53;12.57;;;6.63;;
15996;SDS011;8103;51.340;12.326;2024-01-07T04:24:19;11.50;;;6.50;;
15996;SDS011;8103;51.340;12.326;2024-01-07T04:26:46;16.65;;;9.15;;
15996;SDS011;8103;51.340;12.326;2024-01-07T04:29:13;10.70;;;6.07;;
15996;SDS011;8103;51.340;12.326;2024-01-07T04:31:39;14.73;;;5.85;;
15996;SDS011;8103;51.340;12.326;2024-01-07T04:34:06;8.77;;;5.65;;
15996;SDS011;8103;51.340;12.326;2024-01-07T04:36:33;10.32;;;4.97;;
15996;SDS011;8103;51.340;12.326;2024-01-07T04:38:59;8.88;;;5.38;;
15996;SDS011;8103;51.340;12.326;2024-01-07T04:41:26;10.27;;;5.47;;
15996;SDS011;8103;51.340;12.326;2024-01-07T04:43:53;11.27;;;5.22;;
15996;SDS011;8103;51.340;12.326;2024-01-07T04:46:19;9.00;;;5.10;;
15996;SDS011;8103;51.340;12.326;2024-01-07T04:48:46;7.57;;;4.43;;
15996;SDS011;8103;51.340;12.326;2024-01-07T04:51:13;9.15;;;4.43;;
15996;SDS011;8103;51.340;12.326;2024-01-07T04:53:40;10.20;;;4.88;;
15996;SDS011;8103;51.340;12.326;2024-01-07T04:56:06;6.15;;;4.38;;
15996;SDS011;8103;51.340;12.326;2024-01-07T04:58:33;8.13;;;4.43;;
15996;SDS011;8103;51.340;12.326;2024-01-07T05:00:59;12.00;;;4.65;;
15996;SDS011;8103;51.340;12.326;2024-01-07T05:03:26;5.45;;;4.00;;
15996;SDS011;8103;51.340;12.326;2024-01-07T05:05:53;7.28;;;3.92;;
15996;SDS011;8103;51.340;12.326;2024-01-07T05:08:20;7.00;;;4.55;;
15996;SDS011;8103;51.340;12.326;2024-01-07T05:10:50;6.47;;;3.50;;
15996;SDS011;8103;51.340;12.326;2024-01-07T05:13:17;9.98;;;4.35;;
15996;SDS011;8103;51.340;12.326;2024-01-07T05:15:44;5.57;;;3.90;;
15996;SDS011;8103;51.340;12.326;2024-01-07T05:18:12;6.93;;;3.97;;
15996;SDS011;8103;51.340;12.326;2024-01-07T05:20:41;5.22;;;3.60;;
15996;SDS011;8103;51.340;12.326;2024-01-07T05:23:07;10.38;;;4.28;;
15996;SDS011;8103;51.340;12.326;2024-01-07T05:25:34;5.38;;;3.08;;
15996;SDS011;8103;51.340;12.326;2024-01-07T05:28:00;4.93;;;3.20;;
15996;SDS011;8103;51.340;12.326;2024-01-07T05:30:27;7.18;;;3.72;;
15996;SDS011;8103;51.340;12.326;2024-01-07T05:32:54;5.93;;;3.33;;
15996;SDS011;8103;51.340;12.326;2024-01-07T05:35:21;8.45;;;3.92;;
15996;SDS011;8103;51.340;12.326;2024-01-07T05:37:47;6.00;;;3.42;;
15996;SDS011;8103;51.340;12.326;2024-01-07T05:40:14;4.75;;;3.42;;
15996;SDS011;8103;51.340;12.326;2024-01-07T05:42:41;5.15;;;3.33;;
15996;SDS011;8103;51.340;12.326;2024-01-07T05:45:08;5.35;;;3.78;;
15996;SDS011;8103;51.340;12.326;2024-01-07T05:47:34;7.35;;;3.35;;
15996;SDS011;8103;51.340;12.326;2024-01-07T05:50:01;6.93;;;3.63;;
15996;SDS011;8103;51.340;12.326;2024-01-07T05:52:28;4.88;;;3.42;;
15996;SDS011;8103;51.340;12.326;2024-01-07T05:54:55;6.30;;;3.63;;
15996;SDS011;8103;51.340;12.326;2024-01-07T05:57:22;4.40;;;2.95;;
15996;SDS011;8103;51.340;12.326;2024-01-07T05:59:48;5.25;;;3.35;;
15996;SDS011;8103;51.340;12.326;2024-01-07T06:02:19;5.20;;;3.40;;
15996;SDS011;8103;51.340;12.326;2024-01-07T06:04:49;6.65;;;3.50;;
15996;SDS011;8103;51.340;12.326;2024-01-07T06:07:16;5.85;;;3.63;;
15996;SDS011;8103;51.340;12.326;2024-01-07T06:09:42;5.63;;;3.13;;
15996;SDS011;8103;51.340;12.326;2024-01-07T06:12:09;6.32;;;3.35;;
15996;SDS011;8103;51.340;12.326;2024-01-07T06:14:36;6.47;;;3.35;;
15996;SDS011;8103;51.340;12.326;2024-01-07T06:17:03;5.97;;;3.72;;
15996;SDS011;8103;51.340;12.326;2024-01-07T06:19:29;5.15;;;3.40;;
15996;SDS011;8103;51.340;12.326;2024-01-07T06:21:56;4.70;;;3.53;;
15996;SDS011;8103;51.340;12.326;2024-01-07T06:24:23;5.50;;;3.47;;
15996;SDS011;8103;51.340;12.326;2024-01-07T06:26:50;4.35;;;3.00;;
15996;SDS011;8103;51.340;12.326;2024-01-07T06:29:16;3.90;;;3.05;;
15996;SDS011;8103;51.340;12.326;2024-01-07T06:31:43;4.75;;;3.00;;
15996;SDS011;8103;51.340;12.326;2024-01-07T06:34:11;6.07;;;3.35;;
15996;SDS011;8103;51.340;12.326;2024-01-07T06:36:41;6.28;;;2.72;;
15996;SDS011;8103;51.340;12.326;2024-01-07T06:39:08;5.70;;;2.80;;
15996;SDS011;8103;51.340;12.326;2024-01-07T06:41:35;6.90;;;2.95;;
15996;SDS011;8103;51.340;12.326;2024-01-07T06:44:02;6.35;;;2.58;;
15996;SDS011;8103;51.340;12.326;2024-01-07T06:46:29;3.88;;;3.10;;
15996;SDS011;8103;51.340;12.326;2024-01-07T06:48:56;4.53;;;2.85;;
15996;SDS011;8103;51.340;12.326;2024-01-07T06:51:23;5.47;;;2.92;;
15996;SDS011;8103;51.340;12.326;2024-01-07T06:53:50;6.97;;;3.55;;
15996;SDS011;8103;51.340;12.326;2024-01-07T06:56:17;3.90;;;2.50;;
15996;SDS011;8103;51.340;12.326;2024-01-07T06:58:43;4.20;;;2.90;;
15996;SDS011;8103;51.340;12.326;2024-01-07T07:01:10;4.18;;;2.33;;
15996;SDS011;8103;51.340;12.326;2024-01-07T07:03:39;3.33;;;2.92;;
15996;SDS011;8103;51.340;12.326;2024-01-07T07:06:06;3.30;;;2.23;;
15996;SDS011;8103;51.340;12.326;2024-01-07T07:08:33;4.10;;;2.63;;
15996;SDS011;8103;51.340;12.326;2024-01-07T07:11:00;2.83;;;2.40;;
15996;SDS011;8103;51.340;12.326;2024-01-07T07:13:27;4.20;;;2.50;;
15996;SDS011;8103;51.340;12.326;2024-01-07T07:15:54;4.88;;;2.60;;
15996;SDS011;8103;51.340;12.326;2024-01-07T07:18:21;3.05;;;2.60;;
15996;SDS011;8103;51.340;12.326;2024-01-07T07:20:48;3.97;;;2.35;;
15996;SDS011;8103;51.340;12.326;2024-01-07T07:23:15;4.18;;;3.17;;
15996;SDS011;8103;51.340;12.326;2024-01-07T07:25:41;6.32;;;2.97;;
15996;SDS011;8103;51.340;12.326;2024-01-07T07:28:08;4.00;;;2.70;;
15996;SDS011;8103;51.340;12.326;2024-01-07T07:30:35;5.67;;;3.40;;
15996;SDS011;8103;51.340;12.326;2024-01-07T07:33:02;4.22;;;3.25;;
15996;SDS011;8103;51.340;12.326;2024-01-07T07:35:29;4.20;;;2.90;;
15996;SDS011;8103;51.340;12.326;2024-01-07T07:37:57;5.72;;;3.40;;
15996;SDS011;8103;51.340;12.326;2024-01-07T07:40:24;6.77;;;3.37;;
15996;SDS011;8103;51.340;12.326;2024-01-07T07:42:50;4.88;;;2.88;;
15996;SDS011;8103;51.340;12.326;2024-01-07T07:45:17;4.50;;;3.45;;
15996;SDS011;8103;51.340;12.326;2024-01-07T07:47:44;5.75;;;3.17;;
15996;SDS011;8103;51.340;12.326;2024-01-07T07:50:11;9.13;;;3.03;;
15996;SDS011;8103;51.340;12.326;2024-01-07T07:52:38;5.28;;;3.30;;
15996;SDS011;8103;51.340;12.326;2024-01-07T07:55:07;4.22;;;2.47;;
15996;SDS011;8103;51.340;12.326;2024-01-07T07:57:34;5.93;;;3.42;;
15996;SDS011;8103;51.340;12.326;2024-01-07T08:00:01;3.70;;;2.58;;
15996;SDS011;8103;51.340;12.326;2024-01-07T08:02:29;7.30;;;2.97;;
15996;SDS011;8103;51.340;12.326;2024-01-07T08:04:56;5.07;;;3.40;;
15996;SDS011;8103;51.340;12.326;2024-01-07T08:07:23;3.75;;;3.08;;
15996;SDS011;8103;51.340;12.326;2024-01-07T08:09:49;3.60;;;1.97;;
15996;SDS011;8103;51.340;12.326;2024-01-07T08:12:16;8.48;;;2.60;;
15996;SDS011;8103;51.340;12.326;2024-01-07T08:14:43;4.55;;;3.22;;
15996;SDS011;8103;51.340;12.326;2024-01-07T08:17:09;6.30;;;3.07;;
15996;SDS011;8103;51.340;12.326;2024-01-07T08:19:36;3.53;;;2.47;;
15996;SDS011;8103;51.340;12.326;2024-01-07T08:22:03;6.72;;;3.50;;
15996;SDS011;8103;51.340;12.326;2024-01-07T08:24:30;7.75;;;4.40;;
15996;SDS011;8103;51.340;12.326;2024-01-07T08:26:57;4.13;;;3.17;;
15996;SDS011;8103;51.340;12.326;2024-01-07T08:29:23;5.00;;;3.20;;
15996;SDS011;8103;51.340;12.326;2024-01-07T08:31:50;4.40;;;2.83;;
15996;SDS011;8103;51.340;12.326;2024-01-07T08:34:17;3.53;;;2.13;;
15996;SDS011;8103;51.340;12.326;2024-01-07T08:36:44;5.73;;;2.77;;
15996;SDS011;8103;51.340;12.326;2024-01-07T08:39:10;3.45;;;2.72;;
15996;SDS011;8103;51.340;12.326;2024-01-07T08:41:37;4.70;;;2.77;;
15996;SDS011;8103;51.340;12.326;2024-01-07T08:44:04;3.93;;;2.90;;
15996;SDS011;8103;51.340;12.326;2024-01-07T08:46:31;3.80;;;2.83;;
15996;SDS011;8103;51.340;12.326;2024-01-07T08:48:58;6.97;;;4.20;;
15996;SDS011;8103;51.340;12.326;2024-01-07T08:51:25;5.72;;;3.38;;
15996;SDS011;8103;51.340;12.326;2024-01-07T08:53:51;4.35;;;3.00;;
15996;SDS011;8103;51.340;12.326;2024-01-07T08:56:18;3.03;;;2.60;;
15996;SDS011;8103;51.340;12.326;2024-01-07T08:58:45;3.35;;;2.50;;
15996;SDS011;8103;51.340;12.326;2024-01-07T09:01:11;2.90;;;2.33;;
15996;SDS011;8103;51.340;12.326;2024-01-07T09:03:40;7.60;;;3.20;;
15996;SDS011;8103;51.340;12.326;2024-01-07T09:06:07;9.48;;;4.55;;
15996;SDS011;8103;51.340;12.326;2024-01-07T09:08:34;14.23;;;6.18;;
15996;SDS011;8103;51.340;12.326;2024-01-07T09:14:49;7.47;;;4.07;;
15996;SDS011;8103;51.340;12.326;2024-01-07T09:21:03;5.13;;;2.50;;
15996;SDS011;8103;51.340;12.326;2024-01-07T09:23:30;4.53;;;2.42;;
15996;SDS011;8103;51.340;12.326;2024-01-07T09:25:56;3.58;;;2.67;;
15996;SDS011;8103;51.340;12.326;2024-01-07T09:28:23;4.35;;;2.42;;
15996;SDS011;8103;51.340;12.326;2024-01-07T09:30:50;2.60;;;2.40;;
15996;SDS011;8103;51.340;12.326;2024-01-07T09:33:17;7.22;;;2.45;;
15996;SDS011;8103;51.340;12.326;2024-01-07T09:35:43;5.72;;;4.55;;
15996;SDS011;8103;51.340;12.326;2024-01-07T09:38:10;3.55;;;2.95;;
15996;SDS011;8103;51.340;12.326;2024-01-07T09:40:38;2.88;;;2.60;;
15996;SDS011;8103;51.340;12.326;2024-01-07T09:43:05;5.57;;;2.97;;
15996;SDS011;8103;51.340;12.326;2024-01-07T09:45:32;3.03;;;2.28;;
15996;SDS011;8103;51.340;12.326;2024-01-07T09:47:59;4.03;;;2.38;;
15996;SDS011;8103;51.340;12.326;2024-01-07T09:50:25;9.68;;;8.38;;
15996;SDS011;8103;51.340;12.326;2024-01-07T09:52:52;7.88;;;5.65;;
15996;SDS011;8103;51.340;12.326;2024-01-07T09:55:28;5.57;;;4.70;;
15996;SDS011;8103;51.340;12.326;2024-01-07T09:57:59;7.43;;;5.10;;
15996;SDS011;8103;51.340;12.326;2024-01-07T10:00:26;4.13;;;3.25;;
15996;SDS011;8103;51.340;12.326;2024-01-07T10:02:53;4.45;;;2.20;;
15996;SDS011;8103;51.340;12.326;2024-01-07T10:05:20;3.60;;;2.75;;
15996;SDS011;8103;51.340;12.326;2024-01-07T10:07:47;3.70;;;1.73;;
15996;SDS011;8103;51.340;12.326;2024-01-07T10:10:14;3.10;;;1.92;;
15996;SDS011;8103;51.340;12.326;2024-01-07T10:12:46;4.80;;;2.30;;
15996;SDS011;8103;51.340;12.326;2024-01-07T10:15:13;4.60;;;3.60;;
15996;SDS011;8103;51.340;12.326;2024-01-07T10:17:41;3.28;;;2.33;;
15996;SDS011;8103;51.340;12.326;2024-01-07T10:20:09;8.20;;;4.05;;
15996;SDS011;8103;51.340;12.326;2024-01-07T10:22:36;5.05;;;3.17;;
15996;SDS011;8103;51.340;12.326;2024-01-07T10:25:04;6.80;;;3.28;;
15996;SDS011;8103;51.340;12.326;2024-01-07T10:27:35;12.77;;;3.47;;
15996;SDS011;8103;51.340;12.326;2024-01-07T10:30:02;5.00;;;3.55;;
15996;SDS011;8103;51.340;12.326;2024-01-07T10:32:30;8.57;;;3.90;;
15996;SDS011;8103;51.340;12.326;2024-01-07T10:34:57;11.35;;;3.45;;
15996;SDS011;8103;51.340;12.326;2024-01-07T10:37:29;13.38;;;2.92;;
15996;SDS011;8103;51.340;12.326;2024-01-07T10:39:58;5.55;;;3.47;;
15996;SDS011;8103;51.340;12.326;2024-01-07T10:42:30;2.75;;;1.52;;
15996;SDS011;8103;51.340;12.326;2024-01-07T10:45:01;2.13;;;1.92;;
15996;SDS011;8103;51.340;12.326;2024-01-07T10:47:29;4.18;;;2.30;;
15996;SDS011;8103;51.340;12.326;2024-01-07T10:49:58;3.88;;;1.60;;
15996;SDS011;8103;51.340;12.326;2024-01-07T10:52:26;2.70;;;1.40;;
15996;SDS011;8103;51.340;12.326;2024-01-07T10:54:56;1.77;;;1.05;;
15996;SDS011;8103;51.340;12.326;2024-01-07T10:57:34;3.38;;;1.40;;
15996;SDS011;8103;51.340;12.326;2024-01-07T11:00:04;2.20;;;1.65;;
15996;SDS011;8103;51.340;12.326;2024-01-07T11:02:38;1.80;;;1.30;;
15996;SDS011;8103;51.340;12.326;2024-01-07T11:05:15;5.40;;;2.10;;
15996;SDS011;8103;51.340;12.326;2024-01-07T11:10:41;3.33;;;1.75;;
15996;SDS011;8103;51.340;12.326;2024-01-07T11:13:36;2.90;;;1.80;;
15996;SDS011;8103;51.340;12.326;2024-01-07T11:16:05;12.00;;;5.57;;
15996;SDS011;8103;51.340;12.326;2024-01-07T11:18:39;3.03;;;2.17;;
15996;SDS011;8103;51.340;12.326;2024-01-07T11:21:12;7.32;;;3.72;;
15996;SDS011;8103;51.340;12.326;2024-01-07T11:23:47;5.45;;;3.00;;
15996;SDS011;8103;51.340;12.326;2024-01-07T11:26:14;4.00;;;1.63;;
15996;SDS011;8103;51.340;12.326;2024-01-07T11:28:53;7.80;;;3.67;;
15996;SDS011;8103;51.340;12.326;2024-01-07T11:34:08;5.93;;;3.33;;
15996;SDS011;8103;51.340;12.326;2024-01-07T11:36:35;5.35;;;2.92;;
15996;SDS011;8103;51.340;12.326;2024-01-07T11:39:03;4.70;;;3.08;;
15996;SDS011;8103;51.340;12.326;2024-01-07T11:41:33;2.58;;;1.67;;
15996;SDS011;8103;51.340;12.326;2024-01-07T11:44:00;5.68;;;1.35;;
15996;SDS011;8103;51.340;12.326;2024-01-07T11:46:30;3.28;;;1.85;;
15996;SDS011;8103;51.340;12.326;2024-01-07T11:48:57;3.42;;;1.42;;
15996;SDS011;8103;51.340;12.326;2024-01-07T11:51:25;2.38;;;1.38;;
15996;SDS011;8103;51.340;12.326;2024-01-07T11:53:53;1.52;;;1.33;;
15996;SDS011;8103;51.340;12.326;2024-01-07T11:56:20;2.42;;;2.15;;
15996;SDS011;8103;51.340;12.326;2024-01-07T11:58:50;2.85;;;1.50;;
15996;SDS011;8103;51.340;12.326;2024-01-07T12:05:04;3.38;;;1.30;;
15996;SDS011;8103;51.340;12.326;2024-01-07T12:07:31;4.55;;;1.50;;
15996;SDS011;8103;51.340;12.326;2024-01-07T12:09:58;3.17;;;1.40;;
15996;SDS011;8103;51.340;12.326;2024-01-07T12:12:25;2.70;;;1.30;;
15996;SDS011;8103;51.340;12.326;2024-01-07T12:14:53;1.45;;;1.20;;
15996;SDS011;8103;51.340;12.326;2024-01-07T12:17:22;3.88;;;1.35;;
15996;SDS011;8103;51.340;12.326;2024-01-07T12:19:49;3.75;;;1.92;;
15996;SDS011;8103;51.340;12.326;2024-01-07T12:22:17;5.30;;;2.38;;
15996;SDS011;8103;51.340;12.326;2024-01-07T12:24:44;2.78;;;2.15;;
15996;SDS011;8103;51.340;12.326;2024-01-07T12:27:11;2.20;;;1.38;;
15996;SDS011;8103;51.340;12.326;2024-01-07T12:29:41;3.08;;;1.63;;
15996;SDS011;8103;51.340;12.326;2024-01-07T12:32:08;4.78;;;2.10;;
15996;SDS011;8103;51.340;12.326;2024-01-07T12:34:36;3.22;;;1.70;;
15996;SDS011;8103;51.340;12.326;2024-01-07T12:37:03;3.22;;;1.77;;
15996;SDS011;8103;51.340;12.326;2024-01-07T12:39:31;2.42;;;1.60;;
15996;SDS011;8103;51.340;12.326;2024-01-07T12:41:58;3.28;;;1.92;;
15996;SDS011;8103;51.340;12.326;2024-01-07T12:44:28;3.25;;;2.30;;
15996;SDS011;8103;51.340;12.326;2024-01-07T12:46:55;3.28;;;1.90;;
15996;SDS011;8103;51.340;12.326;2024-01-07T12:49:21;4.97;;;2.08;;
15996;SDS011;8103;51.340;12.326;2024-01-07T12:55:36;4.80;;;1.95;;
15996;SDS011;8103;51.340;12.326;2024-01-07T13:01:50;1.25;;;0.95;;
15996;SDS011;8103;51.340;12.326;2024-01-07T13:04:19;1.65;;;1.10;;
15996;SDS011;8103;51.340;12.326;2024-01-07T13:06:46;2.38;;;1.27;;
15996;SDS011;8103;51.340;12.326;2024-01-07T13:09:13;2.70;;;1.80;;
15996;SDS011;8103;51.340;12.326;2024-01-07T13:11:40;2.38;;;1.30;;
15996;SDS011;8103;51.340;12.326;2024-01-07T13:14:07;1.45;;;1.13;;
15996;SDS011;8103;51.340;12.326;2024-01-07T13:16:34;1.20;;;1.10;;
15996;SDS011;8103;51.340;12.326;2024-01-07T13:19:01;1.52;;;1.15;;
15996;SDS011;8103;51.340;12.326;2024-01-07T13:21:30;1.15;;;1.00;;
15996;SDS011;8103;51.340;12.326;2024-01-07T13:23:58;1.20;;;0.80;;
15996;SDS011;8103;51.340;12.326;2024-01-07T13:26:26;1.38;;;1.05;;
15996;SDS011;8103;51.340;12.326;2024-01-07T13:28:52;1.30;;;1.20;;
15996;SDS011;8103;51.340;12.326;2024-01-07T13:31:19;1.65;;;1.52;;
15996;SDS011;8103;51.340;12.326;2024-01-07T13:33:46;2.13;;;1.55;;
15996;SDS011;8103;51.340;12.326;2024-01-07T13:36:13;1.55;;;1.10;;
15996;SDS011;8103;51.340;12.326;2024-01-07T13:38:40;1.63;;;1.10;;
15996;SDS011;8103;51.340;12.326;2024-01-07T13:41:09;1.65;;;1.38;;
15996;SDS011;8103;51.340;12.326;2024-01-07T13:43:37;1.92;;;1.48;;
15996;SDS011;8103;51.340;12.326;2024-01-07T13:46:06;1.90;;;1.30;;
15996;SDS011;8103;51.340;12.326;2024-01-07T13:48:33;3.50;;;1.38;;
15996;SDS011;8103;51.340;12.326;2024-01-07T13:51:00;2.13;;;1.23;;
15996;SDS011;8103;51.340;12.326;2024-01-07T13:53:28;2.63;;;1.35;;
15996;SDS011;8103;51.340;12.326;2024-01-07T13:55:55;2.33;;;1.35;;
15996;SDS011;8103;51.340;12.326;2024-01-07T13:58:22;2.22;;;1.50;;
15996;SDS011;8103;51.340;12.326;2024-01-07T14:00:50;5.30;;;1.50;;
15996;SDS011;8103;51.340;12.326;2024-01-07T14:03:18;2.33;;;1.85;;
15996;SDS011;8103;51.340;12.326;2024-01-07T14:05:46;1.52;;;1.30;;
15996;SDS011;8103;51.340;12.326;2024-01-07T14:08:13;1.33;;;1.13;;
15996;SDS011;8103;51.340;12.326;2024-01-07T14:10:40;1.70;;;1.42;;
15996;SDS011;8103;51.340;12.326;2024-01-07T14:13:07;2.25;;;1.27;;
15996;SDS011;8103;51.340;12.326;2024-01-07T14:15:33;4.07;;;1.70;;
15996;SDS011;8103;51.340;12.326;2024-01-07T14:18:00;2.90;;;1.65;;
15996;SDS011;8103;51.340;12.326;2024-01-07T14:20:28;2.97;;;1.73;;
15996;SDS011;8103;51.340;12.326;2024-01-07T14:22:54;2.95;;;1.30;;
15996;SDS011;8103;51.340;12.326;2024-01-07T14:25:21;1.67;;;1.50;;
15996;SDS011;8103;51.340;12.326;2024-01-07T14:27:48;1.83;;;1.48;;
15996;SDS011;8103;51.340;12.326;2024-01-07T14:30:15;3.47;;;1.23;;
15996;SDS011;8103;51.340;12.326;2024-01-07T14:32:41;2.40;;;1.45;;
15996;SDS011;8103;51.340;12.326;2024-01-07T14:35:13;5.70;;;4.50;;
15996;SDS011;8103;51.340;12.326;2024-01-07T14:37:40;2.10;;;1.58;;
15996;SDS011;8103;51.340;12.326;2024-01-07T14:40:07;2.67;;;1.70;;
15996;SDS011;8103;51.340;12.326;2024-01-07T14:42:34;2.08;;;1.70;;
15996;SDS011;8103;51.340;12.326;2024-01-07T14:45:01;3.08;;;1.80;;
15996;SDS011;8103;51.340;12.326;2024-01-07T14:47:28;2.90;;;1.42;;
15996;SDS011;8103;51.340;12.326;2024-01-07T14:49:55;2.85;;;1.70;;
15996;SDS011;8103;51.340;12.326;2024-01-07T14:52:22;3.72;;;1.98;;
15996;SDS011;8103;51.340;12.326;2024-01-07T14:54:49;1.77;;;1.52;;
15996;SDS011;8103;51.340;12.326;2024-01-07T14:57:15;2.20;;;1.50;;
15996;SDS011;8103;51.340;12.326;2024-01-07T14:59:42;1.77;;;1.27;;
15996;SDS011;8103;51.340;12.326;2024-01-07T15:02:09;4.93;;;1.88;;
15996;SDS011;8103;51.340;12.326;2024-01-07T15:04:37;3.58;;;2.28;;
15996;SDS011;8103;51.340;12.326;2024-01-07T15:07:04;7.97;;;5.07;;